createdAt,value
2024-01-21T00:01:21.133Z,9.60
2024-01-21T00:04:07.839Z,7.57
2024-01-21T00:06:35.273Z,8.68
2024-01-21T00:09:02.823Z,8.50
2024-01-21T00:11:30.186Z,9.27
2024-01-21T00:13:57.608Z,14.02
2024-01-21T00:16:24.898Z,13.63
2024-01-21T00:18:52.443Z,11.60
2024-01-21T00:21:19.778Z,18.02
2024-01-21T00:23:47.695Z,10.43
2024-01-21T00:26:15.347Z,14.32
2024-01-21T00:28:42.935Z,15.57
2024-01-21T00:31:10.104Z,12.52
2024-01-21T00:33:37.889Z,12.30
2024-01-21T00:36:05.332Z,11.10
2024-01-21T00:38:32.834Z,12.88
2024-01-21T00:41:00.034Z,11.27
2024-01-21T00:43:27.557Z,13.55
2024-01-21T00:45:54.785Z,13.38
2024-01-21T00:48:22.463Z,16.15
2024-01-21T00:50:49.694Z,15.82
2024-01-21T00:53:17.186Z,14.15
2024-01-21T00:55:44.323Z,12.23
2024-01-21T00:58:11.794Z,14.23
2024-01-21T01:00:39.187Z,14.57
2024-01-21T01:03:06.959Z,14.05
2024-01-21T01:05:34.421Z,16.67
2024-01-21T01:08:02.043Z,19.17
2024-01-21T01:10:29.359Z,12.77
2024-01-21T01:12:57.323Z,13.57
2024-01-21T01:15:24.826Z,15.02
2024-01-21T01:17:52.834Z,23.85
2024-01-21T01:20:20.666Z,80.70
2024-01-21T01:22:48.295Z,185.68
2024-01-21T01:25:15.674Z,73.95
2024-01-21T01:27:43.351Z,21.13
2024-01-21T01:30:11.699Z,14.02
2024-01-21T01:32:39.334Z,11.02
2024-01-21T01:35:07.341Z,14.88
2024-01-21T01:37:34.942Z,15.65
2024-01-21T01:40:02.509Z,12.98
2024-01-21T01:42:30.168Z,15.05
2024-01-21T01:44:57.720Z,13.23
2024-01-21T01:47:26.229Z,14.55
2024-01-21T01:49:55.301Z,11.45
2024-01-21T01:52:23.268Z,14.27
2024-01-21T01:54:50.724Z,12.13
2024-01-21T01:57:20.091Z,11.38
2024-01-21T01:59:47.418Z,11.07
2024-01-21T02:02:15.324Z,11.38
2024-01-21T02:04:42.674Z,13.85
2024-01-21T02:07:10.224Z,11.32
2024-01-21T02:09:37.619Z,11.77
2024-01-21T02:12:05.810Z,11.35
2024-01-21T02:14:33.123Z,13.25
2024-01-21T02:17:00.978Z,11.30
2024-01-21T02:19:31.991Z,14.75
2024-01-21T02:21:59.746Z,12.73
2024-01-21T02:24:31.771Z,8.00
2024-01-21T02:27:00.276Z,9.93
2024-01-21T02:29:27.905Z,10.35
2024-01-21T02:31:57.565Z,9.35
2024-01-21T02:34:24.915Z,9.43
2024-01-21T02:36:52.462Z,14.27
2024-01-21T02:39:19.766Z,9.60
2024-01-21T02:41:47.345Z,10.65
2024-01-21T02:44:14.516Z,8.10
2024-01-21T02:46:42.120Z,14.18
2024-01-21T02:49:09.365Z,10.13
2024-01-21T02:51:36.867Z,7.00
2024-01-21T02:54:04.114Z,10.70
2024-01-21T02:56:31.945Z,10.27
2024-01-21T02:58:59.179Z,11.40
2024-01-21T03:01:26.712Z,8.77
2024-01-21T03:03:54.185Z,10.40
2024-01-21T03:06:21.822Z,9.05
2024-01-21T03:08:48.994Z,17.38
2024-01-21T03:11:16.888Z,14.20
2024-01-21T03:13:44.067Z,235.73
2024-01-21T03:16:12.988Z,197.02
2024-01-21T03:18:40.455Z,81.88
2024-01-21T03:21:08.514Z,110.07
2024-01-21T03:23:35.858Z,46.28
2024-01-21T03:26:03.470Z,20.90
2024-01-21T03:28:30.669Z,21.55
2024-01-21T03:30:58.533Z,12.82
2024-01-21T03:33:27.106Z,14.30
2024-01-21T03:35:54.913Z,128.18
2024-01-21T03:38:22.175Z,51.92
2024-01-21T03:40:49.832Z,22.80
2024-01-21T03:43:19.126Z,18.63
2024-01-21T03:45:46.797Z,18.67
2024-01-21T03:48:14.387Z,21.50
2024-01-21T03:50:41.982Z,17.30
2024-01-21T03:53:09.284Z,25.30
2024-01-21T03:55:36.907Z,19.40
2024-01-21T03:58:04.369Z,24.63
2024-01-21T04:00:32.024Z,20.67
2024-01-21T04:02:59.288Z,18.58
2024-01-21T04:05:26.905Z,16.67
2024-01-21T04:07:54.034Z,16.98
2024-01-21T04:10:21.841Z,20.27
2024-01-21T04:12:49.216Z,19.35
2024-01-21T04:15:16.836Z,22.92
2024-01-21T04:17:44.301Z,17.67
2024-01-21T04:20:12.298Z,18.55
2024-01-21T04:22:39.504Z,17.88
2024-01-21T04:25:07.414Z,26.02
2024-01-21T04:27:34.662Z,16.25
2024-01-21T04:30:02.277Z,16.02
2024-01-21T04:32:29.524Z,16.08
2024-01-21T04:34:57.027Z,17.35
2024-01-21T04:37:24.344Z,24.00
2024-01-21T04:39:52.055Z,28.38
2024-01-21T04:42:19.369Z,23.75
2024-01-21T04:44:46.963Z,15.10
2024-01-21T04:47:14.136Z,17.77
2024-01-21T04:49:41.817Z,18.75
2024-01-21T04:52:09.189Z,22.15
2024-01-21T04:54:37.720Z,19.70
2024-01-21T04:57:05.239Z,21.10
2024-01-21T04:59:32.791Z,19.55
2024-01-21T05:01:59.955Z,21.73
2024-01-21T05:04:27.605Z,19.48
2024-01-21T05:06:55.107Z,18.13
2024-01-21T05:09:22.610Z,18.52
2024-01-21T05:11:49.866Z,19.17
2024-01-21T05:14:17.404Z,16.95
2024-01-21T05:16:44.584Z,17.80
2024-01-21T05:19:15.613Z,20.70
2024-01-21T05:21:43.035Z,17.65
2024-01-21T05:24:10.531Z,20.52
2024-01-21T05:26:47.053Z,15.73
2024-01-21T05:29:14.816Z,19.15
2024-01-21T05:31:42.036Z,19.75
2024-01-21T05:34:09.581Z,23.30
2024-01-21T05:36:36.914Z,21.13
2024-01-21T05:39:04.956Z,26.33
2024-01-21T05:41:33.428Z,21.27
2024-01-21T05:44:00.877Z,21.42
2024-01-21T05:46:28.148Z,21.50
2024-01-21T05:48:55.689Z,22.23
2024-01-21T05:51:23.268Z,26.20
2024-01-21T05:53:51.142Z,32.97
2024-01-21T05:56:19.465Z,29.02
2024-01-21T05:58:47.055Z,35.38
2024-01-21T06:01:15.526Z,28.17
2024-01-21T06:03:43.301Z,30.58
2024-01-21T06:06:11.360Z,31.02
2024-01-21T06:08:38.939Z,30.85
2024-01-21T06:11:06.194Z,26.55
2024-01-21T06:13:33.865Z,28.90
2024-01-21T06:16:02.635Z,28.15
2024-01-21T06:18:31.191Z,31.55
2024-01-21T06:20:58.497Z,28.05
2024-01-21T06:23:25.936Z,24.85
2024-01-21T06:25:53.097Z,20.55
2024-01-21T06:28:20.663Z,23.33
2024-01-21T06:30:47.951Z,22.02
2024-01-21T06:33:15.707Z,30.60
2024-01-21T06:35:43.192Z,38.13
2024-01-21T06:38:10.840Z,29.85
2024-01-21T06:40:38.035Z,40.10
2024-01-21T06:43:05.619Z,43.13
2024-01-21T06:45:32.873Z,49.20
2024-01-21T06:48:00.585Z,53.17
2024-01-21T06:50:28.701Z,76.82
2024-01-21T06:52:56.301Z,64.25
2024-01-21T06:55:23.828Z,59.72
2024-01-21T06:57:51.557Z,69.22
2024-01-21T07:00:19.660Z,77.43
2024-01-21T07:02:47.308Z,66.97
2024-01-21T07:05:14.662Z,60.00
2024-01-21T07:07:42.167Z,57.83
2024-01-21T07:10:09.709Z,46.25
2024-01-21T07:12:37.215Z,42.38
2024-01-21T07:15:04.907Z,42.88
2024-01-21T07:17:32.577Z,42.03
2024-01-21T07:20:04.637Z,49.35
2024-01-21T07:22:32.258Z,58.78
2024-01-21T07:25:00.819Z,40.35
2024-01-21T07:27:29.260Z,33.63
2024-01-21T07:29:56.665Z,61.83
2024-01-21T07:32:24.157Z,31.63
2024-01-21T07:34:51.807Z,31.55
2024-01-21T07:37:19.504Z,36.08
2024-01-21T07:39:46.896Z,51.55
2024-01-21T07:42:14.460Z,62.33
2024-01-21T07:44:41.966Z,46.03
2024-01-21T07:47:09.503Z,38.83
2024-01-21T07:49:37.496Z,34.33
2024-01-21T07:52:05.510Z,40.80
2024-01-21T07:54:32.823Z,38.53
2024-01-21T07:57:00.268Z,28.23
2024-01-21T07:59:27.575Z,25.23
2024-01-21T08:01:55.094Z,21.13
2024-01-21T08:04:22.438Z,21.52
2024-01-21T08:06:50.346Z,22.00
2024-01-21T08:09:22.210Z,17.00
2024-01-21T08:11:50.765Z,18.98
2024-01-21T08:14:18.103Z,22.13
2024-01-21T08:16:45.604Z,23.00
2024-01-21T08:19:12.949Z,18.23
2024-01-21T08:21:40.515Z,19.30
2024-01-21T08:24:07.721Z,17.27
2024-01-21T08:26:35.286Z,22.10
2024-01-21T08:29:02.472Z,20.35
2024-01-21T08:31:30.050Z,20.40
2024-01-21T08:33:57.545Z,22.40
2024-01-21T08:36:24.772Z,27.25
2024-01-21T08:38:52.936Z,21.90
2024-01-21T08:41:20.183Z,27.00
2024-01-21T08:43:47.743Z,25.33
2024-01-21T08:46:15.404Z,27.60
2024-01-21T08:48:46.067Z,20.23
2024-01-21T08:51:13.800Z,24.15
2024-01-21T08:53:41.321Z,20.42
2024-01-21T08:56:08.507Z,22.90
2024-01-21T08:58:36.273Z,20.23
2024-01-21T09:01:03.665Z,21.55
2024-01-21T09:03:31.961Z,24.10
2024-01-21T09:05:59.263Z,25.65
2024-01-21T09:08:26.849Z,33.08
2024-01-21T09:10:54.094Z,27.45
2024-01-21T09:13:21.588Z,25.02
2024-01-21T09:15:49.046Z,31.10
2024-01-21T09:18:16.812Z,33.50
2024-01-21T09:20:45.109Z,35.10
2024-01-21T09:23:12.730Z,36.05
2024-01-21T09:25:39.921Z,29.80
2024-01-21T09:28:08.008Z,36.78
2024-01-21T09:30:35.270Z,33.15
2024-01-21T09:33:02.918Z,45.72
2024-01-21T09:35:30.406Z,41.80
2024-01-21T09:37:58.006Z,46.30
2024-01-21T09:40:25.339Z,39.13
2024-01-21T09:42:52.981Z,39.47
2024-01-21T09:45:22.978Z,33.70
2024-01-21T09:47:54.388Z,22.58
2024-01-21T09:50:22.916Z,22.50
2024-01-21T09:52:50.744Z,21.42
2024-01-21T09:55:18.213Z,21.95
2024-01-21T09:57:46.479Z,36.60
2024-01-21T10:00:15.403Z,47.10
2024-01-21T10:02:44.231Z,25.08
2024-01-21T10:05:11.552Z,22.05
2024-01-21T10:07:40.866Z,23.98
2024-01-21T10:10:08.711Z,16.75
2024-01-21T10:12:36.442Z,24.20
2024-01-21T10:15:03.943Z,28.02
2024-01-21T10:17:31.532Z,23.23
2024-01-21T10:19:59.713Z,23.95
2024-01-21T10:22:27.344Z,27.77
2024-01-21T10:24:54.744Z,24.77
2024-01-21T10:27:22.894Z,26.63
2024-01-21T10:29:50.243Z,25.60
2024-01-21T10:32:19.459Z,31.83
2024-01-21T10:34:51.245Z,24.88
2024-01-21T10:37:19.134Z,26.05
2024-01-21T10:39:51.237Z,24.15
2024-01-21T10:42:19.015Z,31.25
2024-01-21T10:44:48.147Z,27.33
2024-01-21T10:47:18.852Z,25.00
2024-01-21T10:49:49.870Z,24.10
2024-01-21T10:52:18.662Z,26.10
2024-01-21T10:54:47.460Z,23.23
2024-01-21T10:57:15.131Z,27.15
2024-01-21T10:59:43.387Z,22.85
2024-01-21T11:02:11.773Z,25.80
2024-01-21T11:04:39.257Z,27.17
2024-01-21T11:07:07.741Z,21.50
2024-01-21T11:09:37.817Z,19.77
2024-01-21T11:12:05.950Z,20.85
2024-01-21T11:14:38.210Z,22.42
2024-01-21T11:17:08.187Z,21.75
2024-01-21T11:19:50.969Z,28.65
2024-01-21T11:22:21.742Z,26.05
2024-01-21T11:24:49.751Z,25.10
2024-01-21T11:27:19.545Z,29.60
2024-01-21T11:29:53.886Z,24.27
2024-01-21T11:32:29.786Z,30.05
2024-01-21T11:35:06.543Z,23.63
2024-01-21T11:37:35.232Z,26.90
2024-01-21T11:40:04.031Z,26.70
2024-01-21T11:42:36.233Z,31.45
2024-01-21T11:45:04.723Z,29.38
2024-01-21T11:47:33.798Z,29.45
2024-01-21T11:50:04.610Z,30.27
2024-01-21T11:52:32.398Z,29.52
2024-01-21T11:55:00.182Z,26.45
2024-01-21T11:57:29.241Z,32.05
2024-01-21T11:59:56.746Z,28.70
2024-01-21T12:02:25.868Z,32.30
2024-01-21T12:04:55.954Z,36.00
2024-01-21T12:07:26.766Z,35.65
2024-01-21T12:09:54.679Z,34.58
2024-01-21T12:12:22.415Z,35.13
2024-01-21T12:14:51.994Z,36.20
2024-01-21T12:17:21.276Z,40.60
2024-01-21T12:19:48.845Z,47.75
2024-01-21T12:22:16.581Z,46.83
2024-01-21T12:24:44.280Z,43.45
2024-01-21T12:27:15.458Z,38.58
2024-01-21T12:29:43.040Z,42.25
2024-01-21T12:32:10.915Z,39.78
2024-01-21T12:34:38.442Z,37.58
2024-01-21T12:37:08.537Z,37.58
2024-01-21T12:39:36.020Z,35.92
2024-01-21T12:42:03.608Z,35.78
2024-01-21T12:44:30.754Z,36.38
2024-01-21T12:46:58.845Z,37.28
2024-01-21T12:49:28.881Z,35.13
2024-01-21T12:51:56.555Z,40.55
2024-01-21T12:54:23.755Z,36.40
2024-01-21T12:56:51.247Z,35.60
2024-01-21T12:59:20.106Z,33.90
2024-01-21T13:01:47.738Z,31.45
2024-01-21T13:04:15.051Z,35.38
2024-01-21T13:06:42.725Z,37.40
2024-01-21T13:09:10.196Z,28.65
2024-01-21T13:11:37.707Z,30.65
2024-01-21T13:14:05.172Z,32.47
2024-01-21T13:16:34.818Z,29.52
2024-01-21T13:19:02.454Z,26.45
2024-01-21T13:21:30.201Z,30.95
2024-01-21T13:23:57.385Z,26.02
2024-01-21T13:26:26.537Z,27.38
2024-01-21T13:29:10.526Z,25.92
2024-01-21T13:31:39.554Z,25.00
2024-01-21T13:34:07.268Z,26.05
2024-01-21T13:36:36.671Z,28.42
2024-01-21T13:39:05.729Z,23.05
2024-01-21T13:41:33.419Z,20.90
2024-01-21T13:44:00.596Z,20.65
2024-01-21T13:46:28.118Z,21.75
2024-01-21T13:48:55.582Z,21.38
2024-01-21T13:51:23.393Z,23.17
2024-01-21T13:53:50.706Z,20.65
2024-01-21T13:56:18.691Z,19.65
2024-01-21T13:58:45.977Z,18.08
2024-01-21T14:01:14.107Z,23.85
2024-01-21T14:03:41.630Z,16.95
2024-01-21T14:06:09.244Z,19.60
2024-01-21T14:08:36.497Z,20.30
2024-01-21T14:11:04.136Z,21.40
2024-01-21T14:13:31.850Z,22.02
2024-01-21T14:15:59.333Z,19.85
2024-01-21T14:18:26.650Z,27.27
2024-01-21T14:20:54.308Z,20.17
2024-01-21T14:23:21.572Z,25.30
2024-01-21T14:25:49.518Z,21.67
2024-01-21T14:28:16.940Z,25.30
2024-01-21T14:30:44.527Z,23.58
2024-01-21T14:33:11.774Z,24.30
2024-01-21T14:35:39.416Z,21.05
2024-01-21T14:38:06.602Z,20.63
2024-01-21T14:40:34.077Z,21.45
2024-01-21T14:43:01.478Z,20.75
2024-01-21T14:45:29.178Z,19.15
2024-01-21T14:47:56.718Z,22.10
2024-01-21T14:50:24.209Z,24.48
2024-01-21T14:52:52.053Z,26.42
2024-01-21T14:55:19.975Z,23.17
2024-01-21T14:57:47.413Z,27.73
2024-01-21T15:00:17.680Z,27.83
2024-01-21T15:02:44.952Z,23.48
2024-01-21T15:05:12.576Z,30.65
2024-01-21T15:07:44.849Z,27.17
2024-01-21T15:10:16.123Z,34.33
2024-01-21T15:12:43.352Z,30.42
2024-01-21T15:15:30.201Z,31.00
2024-01-21T15:17:59.726Z,30.50
2024-01-21T15:20:28.847Z,32.88
2024-01-21T15:22:56.374Z,31.27
2024-01-21T15:25:24.256Z,29.17
2024-01-21T15:27:51.439Z,34.65
2024-01-21T15:30:19.167Z,29.05
2024-01-21T15:32:46.624Z,30.98
2024-01-21T15:35:14.595Z,35.63
2024-01-21T15:37:42.207Z,34.97
2024-01-21T15:40:10.119Z,28.25
2024-01-21T15:42:37.527Z,32.00
2024-01-21T15:45:11.360Z,34.80
2024-01-21T15:47:39.982Z,27.58
2024-01-21T15:50:08.426Z,30.63
2024-01-21T15:52:36.816Z,34.47
2024-01-21T15:55:05.281Z,31.23
2024-01-21T15:57:32.504Z,33.20
2024-01-21T16:00:00.751Z,32.50
2024-01-21T16:02:28.110Z,31.15
2024-01-21T16:04:55.749Z,32.20
2024-01-21T16:07:23.674Z,37.70
2024-01-21T16:09:54.509Z,36.92
2024-01-21T16:12:24.092Z,33.75
2024-01-21T16:14:52.195Z,32.05
2024-01-21T16:17:19.495Z,35.97
2024-01-21T16:19:48.483Z,36.92
2024-01-21T16:22:17.097Z,31.98
2024-01-21T16:24:44.794Z,42.08
2024-01-21T16:27:19.666Z,40.08
2024-01-21T16:29:51.774Z,33.78
2024-01-21T16:32:19.080Z,38.75
2024-01-21T16:34:55.363Z,37.15
2024-01-21T16:37:27.561Z,38.72
2024-01-21T16:39:55.871Z,35.40
2024-01-21T16:42:23.351Z,36.75
2024-01-21T16:44:52.905Z,44.15
2024-01-21T16:47:20.155Z,33.22
2024-01-21T16:49:47.744Z,33.42
2024-01-21T16:52:22.000Z,35.03
2024-01-21T16:54:49.377Z,40.35
2024-01-21T16:57:16.505Z,35.55
2024-01-21T16:59:50.588Z,38.10
2024-01-21T17:02:19.578Z,40.15
2024-01-21T17:04:47.848Z,40.10
2024-01-21T17:07:15.178Z,43.72
2024-01-21T17:09:42.680Z,40.97
2024-01-21T17:12:37.844Z,29.60
2024-01-21T17:15:06.504Z,37.60
2024-01-21T17:17:33.753Z,40.67
2024-01-21T17:20:01.210Z,36.00
2024-01-21T17:22:28.388Z,32.95
2024-01-21T17:24:55.826Z,36.65
2024-01-21T17:27:25.739Z,38.60
2024-01-21T17:29:53.269Z,34.10
2024-01-21T17:32:20.472Z,33.95
2024-01-21T17:34:47.856Z,36.08
2024-01-21T17:37:17.495Z,34.97
2024-01-21T17:39:45.089Z,31.00
2024-01-21T17:42:12.794Z,34.47
2024-01-21T17:44:40.578Z,42.78
2024-01-21T17:47:07.764Z,39.08
2024-01-21T17:49:35.312Z,35.75
2024-01-21T17:52:03.931Z,35.75
2024-01-21T17:54:32.293Z,40.45
2024-01-21T17:56:59.523Z,31.98
2024-01-21T17:59:27.181Z,36.80
2024-01-21T18:01:54.273Z,35.08
2024-01-21T18:04:21.645Z,42.83
2024-01-21T18:06:48.782Z,35.72
2024-01-21T18:09:17.747Z,35.70
2024-01-21T18:11:45.201Z,33.33
2024-01-21T18:14:12.584Z,37.80
2024-01-21T18:16:39.770Z,41.00
2024-01-21T18:19:07.823Z,40.20
2024-01-21T18:21:36.457Z,39.13
2024-01-21T18:24:07.476Z,34.85
2024-01-21T18:26:35.516Z,39.58
2024-01-21T18:29:15.849Z,46.75
2024-01-21T18:31:51.477Z,41.65
2024-01-21T18:34:23.407Z,37.47
2024-01-21T18:36:50.695Z,44.63
2024-01-21T18:39:18.163Z,49.72
2024-01-21T18:41:45.297Z,51.92
2024-01-21T18:44:12.831Z,77.47
2024-01-21T18:46:39.896Z,116.82
2024-01-21T18:49:07.491Z,107.78
2024-01-21T18:51:34.714Z,95.70
2024-01-21T18:54:02.089Z,57.00
2024-01-21T18:56:29.304Z,91.63
2024-01-21T18:58:57.282Z,82.05
2024-01-21T19:01:24.392Z,72.47
2024-01-21T19:03:51.799Z,103.65
2024-01-21T19:06:22.759Z,72.82
2024-01-21T19:08:50.815Z,71.88
2024-01-21T19:11:18.231Z,47.92
2024-01-21T19:13:46.438Z,64.03
2024-01-21T19:16:13.904Z,50.75
2024-01-21T19:18:44.133Z,45.88
2024-01-21T19:21:13.271Z,41.28
2024-01-21T19:23:40.721Z,41.63
2024-01-21T19:26:08.507Z,46.63
2024-01-21T19:28:35.972Z,34.42
2024-01-21T19:31:03.047Z,36.88
2024-01-21T19:33:30.513Z,38.70
2024-01-21T19:35:57.676Z,34.80
2024-01-21T19:38:26.116Z,42.92
2024-01-21T19:40:53.211Z,40.67
2024-01-21T19:43:23.410Z,44.53
2024-01-21T19:45:50.710Z,41.03
2024-01-21T19:48:18.200Z,37.85
2024-01-21T19:50:45.413Z,38.88
2024-01-21T19:53:12.850Z,31.17
2024-01-21T19:55:40.005Z,37.95
2024-01-21T19:58:07.563Z,33.63
2024-01-21T20:00:34.942Z,29.75
2024-01-21T20:03:02.273Z,32.53
2024-01-21T20:05:29.876Z,32.45
2024-01-21T20:07:57.331Z,38.25
2024-01-21T20:10:24.464Z,31.27
2024-01-21T20:12:52.292Z,37.83
2024-01-21T20:15:19.718Z,30.10
2024-01-21T20:17:47.208Z,33.05
2024-01-21T20:20:14.402Z,32.17
2024-01-21T20:22:42.747Z,34.38
2024-01-21T20:25:10.058Z,41.58
2024-01-21T20:27:38.154Z,35.92
2024-01-21T20:30:06.708Z,39.28
2024-01-21T20:32:34.358Z,36.75
2024-01-21T20:35:01.968Z,39.85
2024-01-21T20:37:29.477Z,38.53
2024-01-21T20:39:56.581Z,32.72
2024-01-21T20:42:24.025Z,34.30
2024-01-21T20:44:51.168Z,37.05
2024-01-21T20:47:18.735Z,36.40
2024-01-21T20:49:46.351Z,37.88
2024-01-21T20:52:15.075Z,39.63
2024-01-21T20:54:42.964Z,33.60
2024-01-21T20:57:10.475Z,35.67
2024-01-21T20:59:37.638Z,34.90
2024-01-21T21:02:05.251Z,33.88
2024-01-21T21:04:33.517Z,40.40
2024-01-21T21:07:01.729Z,33.47
2024-01-21T21:09:28.958Z,31.00
2024-01-21T21:11:56.348Z,31.33
2024-01-21T21:14:23.625Z,32.15
2024-01-21T21:16:51.034Z,36.65
2024-01-21T21:19:18.366Z,35.25
2024-01-21T21:21:46.064Z,31.40
2024-01-21T21:24:16.594Z,38.05
2024-01-21T21:26:44.207Z,34.20
2024-01-21T21:29:11.688Z,34.88
2024-01-21T21:31:39.048Z,33.90
2024-01-21T21:34:06.682Z,52.50
2024-01-21T21:36:35.166Z,80.20
2024-01-21T21:39:03.833Z,48.95
2024-01-21T21:41:31.867Z,68.75
2024-01-21T21:43:59.373Z,75.78
2024-01-21T21:46:26.689Z,62.72
2024-01-21T21:48:54.133Z,37.90
2024-01-21T21:51:22.323Z,57.08
2024-01-21T21:53:50.948Z,37.83
2024-01-21T21:56:18.931Z,39.63
2024-01-21T21:58:46.475Z,37.35
2024-01-21T22:01:19.714Z,45.40
2024-01-21T22:03:48.127Z,54.15
2024-01-21T22:06:18.399Z,40.22
2024-01-21T22:08:46.231Z,40.15
2024-01-21T22:11:14.144Z,34.33
2024-01-21T22:13:41.468Z,44.03
2024-01-21T22:16:09.858Z,33.88
2024-01-21T22:18:38.217Z,36.70
2024-01-21T22:21:16.503Z,36.70
2024-01-21T22:23:44.097Z,29.83
2024-01-21T22:26:11.768Z,38.28
2024-01-21T22:28:39.677Z,37.88
2024-01-21T22:31:10.056Z,34.83
2024-01-21T22:33:37.368Z,34.97
2024-01-21T22:36:05.061Z,32.42
2024-01-21T22:38:32.929Z,39.78
2024-01-21T22:41:00.302Z,35.35
2024-01-21T22:43:27.532Z,39.30
2024-01-21T22:45:55.141Z,39.45
2024-01-21T22:48:22.494Z,37.28
2024-01-21T22:50:50.266Z,34.75
2024-01-21T22:53:18.681Z,34.40
2024-01-21T22:55:46.973Z,46.88
2024-01-21T22:58:13.978Z,52.33
2024-01-21T23:00:41.673Z,38.35
2024-01-21T23:03:09.061Z,36.70
2024-01-21T23:05:36.674Z,40.55
2024-01-21T23:08:04.000Z,37.17
2024-01-21T23:10:31.301Z,39.58
2024-01-21T23:12:58.384Z,39.88
2024-01-21T23:15:25.738Z,54.92
2024-01-21T23:17:52.896Z,59.63
2024-01-21T23:20:20.372Z,48.25
2024-01-21T23:22:47.416Z,32.25
2024-01-21T23:25:14.835Z,29.90
2024-01-21T23:27:42.256Z,35.15
2024-01-21T23:30:10.021Z,33.78
2024-01-21T23:32:37.259Z,31.90
2024-01-21T23:35:05.037Z,31.27
2024-01-21T23:37:32.093Z,34.58
2024-01-21T23:39:59.579Z,32.75
2024-01-21T23:42:26.646Z,29.05
2024-01-21T23:44:54.055Z,31.50
2024-01-21T23:47:21.213Z,30.58
2024-01-21T23:49:48.560Z,30.02
2024-01-21T23:52:15.643Z,33.80
2024-01-21T23:54:44.338Z,32.42
2024-01-21T23:57:12.114Z,30.98
2024-01-21T23:59:39.823Z,32.97
